Time;durP1;ratioP1;P1;durP2;ratioP2;P2;SDS_P1;SDS_P2;PMS_P1;PMS_P2;Temp;Humidity;BMP_temperature;BMP_pressure;BME280_temperature;BME280_humidity;BME280_pressure;Samples;Min_cycle;Max_cycle;Signal;HPM_P1;HPM_P2
2023/12/06 00:00:11;;;;;;;9.88;4.65;;;1.90;84.90;;;;;;4952835;28;20039;-82
2023/12/06 00:02:36;;;;;;;14.95;5.82;;;1.50;94.60;;;;;;4952315;29;20089;-82
2023/12/06 00:05:02;;;;;;;8.95;5.47;;;;;;;;;;4952689;28;20031;-82
2023/12/06 00:07:28;;;;;;;14.25;7.15;;;;;;;;;;4952938;29;20043;-83
2023/12/06 00:09:54;;;;;;;17.30;6.63;;;1.50;90.20;;;;;;4952647;29;20114;-83
2023/12/06 00:12:20;;;;;;;12.68;4.30;;;;;;;;;;4951000;29;20102;-82
2023/12/06 00:14:46;;;;;;;7.40;4.00;;;;;;;;;;4942029;29;20396;-83
2023/12/06 00:17:12;;;;;;;11.02;6.22;;;;;;;;;;4951807;29;20042;-82
2023/12/06 00:19:38;;;;;;;15.93;5.60;;;;;;;;;;4935548;29;20027;-83
2023/12/06 00:22:04;;;;;;;7.72;5.13;;;;;;;;;;4952857;29;20523;-83
2023/12/06 00:24:30;;;;;;;11.10;5.40;;;;;;;;;;4951952;29;20042;-83
2023/12/06 00:26:56;;;;;;;16.63;5.50;;;;;;;;;;4951883;29;20039;-83
2023/12/06 00:29:22;;;;;;;12.93;4.20;;;;;;;;;;4952157;29;20077;-83
2023/12/06 00:31:48;;;;;;;11.70;4.60;;;;;;;;;;4952362;29;20027;-82
2023/12/06 00:34:14;;;;;;;8.90;3.45;;;;;;;;;;4950704;29;20094;-83
2023/12/06 00:36:41;;;;;;;6.40;3.78;;;;;;;;;;4930354;29;20039;-83
2023/12/06 00:39:06;;;;;;;4.28;2.03;;;0.90;98.20;;;;;;4952226;29;20031;-82
2023/12/06 00:41:32;;;;;;;19.85;7.55;;;;;;;;;;4951923;29;20062;-83
2023/12/06 00:44:01;;;;;;;35.55;8.43;;;;;;;;;;4952539;29;20452;-82
2023/12/06 00:46:27;;;;;;;6.57;4.68;;;;;;;;;;4951757;29;20027;-82
2023/12/06 00:48:53;;;;;;;5.63;3.58;;;;;;;;;;4952017;29;20038;-82
2023/12/06 00:51:19;;;;;;;6.07;4.22;;;;;;;;;;4952255;29;20114;-83
2023/12/06 00:53:45;;;;;;;12.82;7.05;;;0.50;95.70;;;;;;4952235;29;20043;-83
2023/12/06 00:56:12;;;;;;;7.20;3.13;;;;;;;;;;4951694;29;20031;-83
2023/12/06 00:58:38;;;;;;;10.85;3.97;;;;;;;;;;4944257;29;20051;-82
2023/12/06 01:01:04;;;;;;;8.07;4.43;;;;;;;;;;4948004;29;20070;-83
2023/12/06 01:03:30;;;;;;;3.22;2.85;;;;;;;;;;4950375;29;20037;-83
2023/12/06 01:05:56;;;;;;;4.30;3.42;;;;;;;;;;4951685;28;20027;-83
2023/12/06 01:08:24;;;;;;;9.73;4.30;;;;;;;;;;4951873;29;20035;-83
2023/12/06 01:10:50;;;;;;;7.18;3.83;;;;;;;;;;4939003;29;20024;-83
2023/12/06 01:13:16;;;;;;;8.27;2.88;;;;;;;;;;4951123;28;20105;-83
2023/12/06 01:15:42;;;;;;;19.80;5.18;;;;;;;;;;4951432;29;20403;-82
2023/12/06 01:18:08;;;;;;;6.25;3.22;;;;;;;;;;4952132;29;20507;-83
2023/12/06 01:20:38;;;;;;;5.65;2.83;;;;;;;;;;4951649;29;20067;-83
2023/12/06 01:23:04;;;;;;;12.82;4.65;;;0.30;98.90;;;;;;4951552;29;20094;-83
2023/12/06 01:25:30;;;;;;;11.48;5.78;;;;;;;;;;4951856;29;20051;-83
2023/12/06 01:27:56;;;;;;;9.38;5.20;;;0.20;94.50;;;;;;4951263;29;20461;-83
2023/12/06 01:30:22;;;;;;;4.97;3.67;;;;;;;;;;4951099;29;20074;-83
2023/12/06 01:32:48;;;;;;;8.00;3.88;;;;;;;;;;4951608;29;20089;-83
2023/12/06 01:35:14;;;;;;;13.15;3.58;;;;;;;;;;4951178;28;20047;-83
2023/12/06 01:37:40;;;;;;;9.15;3.88;;;;;;;;;;4951711;29;20027;-84
2023/12/06 01:40:06;;;;;;;13.32;6.93;;;0.00;92.50;;;;;;4951406;29;20082;-82
2023/12/06 01:42:32;;;;;;;8.52;5.03;;;-0.40;97.50;;;;;;4951220;29;20496;-83
2023/12/06 01:44:58;;;;;;;12.63;4.40;;;;;;;;;;4951549;29;20028;-82
2023/12/06 01:47:26;;;;;;;14.95;6.57;;;0.00;92.30;;;;;;4942735;29;20047;-82
2023/12/06 01:49:57;;;;;;;6.63;2.75;;;0.00;93.30;;;;;;4948185;29;20443;-82
2023/12/06 01:52:23;;;;;;;11.82;3.42;;;0.20;99.90;;;;;;4951628;29;20031;-83
2023/12/06 01:54:49;;;;;;;6.15;2.90;;;-0.10;93.00;;;;;;4951523;29;20028;-82
2023/12/06 01:57:15;;;;;;;12.32;4.07;;;0.00;94.70;;;;;;4944071;29;20051;-83
2023/12/06 01:59:43;;;;;;;28.48;5.50;;;0.20;99.90;;;;;;4948485;29;20039;-83
2023/12/06 02:02:09;;;;;;;6.32;3.47;;;0.10;92.50;;;;;;4951098;29;20043;-83
2023/12/06 02:04:36;;;;;;;9.98;4.55;;;;;;;;;;4951501;28;20444;-83
2023/12/06 02:07:01;;;;;;;13.40;5.00;;;0.10;99.90;;;;;;4943655;29;20046;-83
2023/12/06 02:09:27;;;;;;;10.57;2.50;;;;;;;;;;4949613;29;20098;-83
2023/12/06 02:11:53;;;;;;;6.18;3.45;;;0.20;99.90;;;;;;4951540;29;20094;-83
2023/12/06 02:14:19;;;;;;;15.10;4.68;;;;;;;;;;4951522;29;20477;-82
2023/12/06 02:16:46;;;;;;;9.10;5.95;;;0.00;99.90;;;;;;4950759;29;20040;-83
2023/12/06 02:19:21;;;;;;;6.05;4.55;;;-0.10;92.40;;;;;;4950994;29;20023;-83
2023/12/06 02:21:47;;;;;;;32.50;6.32;;;;;;;;;;4951587;29;20106;-82
2023/12/06 02:24:14;;;;;;;11.88;4.18;;;-0.20;99.90;;;;;;4952056;28;20111;-83
2023/12/06 02:26:39;;;;;;;11.35;5.20;;;;;;;;;;4954647;29;20639;-82
2023/12/06 02:29:05;;;;;;;6.63;2.97;;;;;;;;;;4954245;29;20134;-82
2023/12/06 02:31:31;;;;;;;5.63;3.47;;;;;;;;;;4954968;29;20034;-82
2023/12/06 02:34:04;;;;;;;5.32;2.00;;;0.30;96.90;;;;;;4954520;29;20024;-82
2023/12/06 02:36:32;;;;;;;6.18;2.35;;;0.00;96.00;;;;;;4953964;28;20027;-83
2023/12/06 02:38:58;;;;;;;;;;;0.10;92.50;;;;;;4954662;29;20034;-83
2023/12/06 02:41:25;;;;;;;4.25;2.67;;;0.10;92.40;;;;;;4944785;29;20360;-82
2023/12/06 02:43:51;;;;;;;;;;;0.10;92.70;;;;;;4954760;29;20031;-82
2023/12/06 02:46:16;;;;;;;4.68;2.30;;;0.10;99.90;;;;;;4954498;29;20284;-82
2023/12/06 02:48:42;;;;;;;5.30;2.25;;;;;;;;;;4954133;29;20473;-83
2023/12/06 02:51:08;;;;;;;7.10;3.42;;;;;;;;;;4954356;29;20504;-82
2023/12/06 02:53:34;;;;;;;2.47;1.73;;;;;;;;;;4954095;29;20035;-83
2023/12/06 02:56:00;;;;;;;6.53;2.88;;;;;;;;;;4952457;29;20424;-82
2023/12/06 02:58:26;;;;;;;16.25;4.68;;;;;;;;;;4953570;29;20039;-83
2023/12/06 03:00:52;;;;;;;10.20;3.17;;;;;;;;;;4953719;29;20070;-82
2023/12/06 03:03:18;;;;;;;11.50;5.40;;;;;;;;;;4936943;29;20448;-82
2023/12/06 03:05:44;;;;;;;3.60;2.50;;;;;;;;;;4954056;28;20026;-82
2023/12/06 03:08:14;;;;;;;9.40;1.67;;;;;;;;;;4945382;29;20047;-82
2023/12/06 03:10:39;;;;;;;3.28;1.73;;;0.60;97.20;;;;;;4945687;29;20032;-82
2023/12/06 03:13:05;;;;;;;5.68;1.98;;;;;;;;;;4954098;29;20047;-82
2023/12/06 03:15:31;;;;;;;12.20;2.85;;;;;;;;;;4953550;29;20038;-83
2023/12/06 03:17:57;;;;;;;3.40;2.10;;;;;;;;;;4954019;29;20031;-82
2023/12/06 03:20:23;;;;;;;4.93;2.08;;;0.70;99.90;;;;;;4950193;29;20055;-83
2023/12/06 03:22:49;;;;;;;14.13;3.22;;;;;;;;;;4936708;29;20054;-83
2023/12/06 03:25:15;;;;;;;16.08;5.30;;;;;;;;;;4951755;29;20027;-83
2023/12/06 03:27:42;;;;;;;7.85;2.95;;;;;;;;;;4952915;29;20046;-83
2023/12/06 03:30:08;;;;;;;4.57;2.28;;;0.20;93.20;;;;;;4953231;29;20055;-82
2023/12/06 03:32:35;;;;;;;14.27;4.00;;;;;;;;;;4936347;29;20039;-82
2023/12/06 03:35:01;;;;;;;14.88;4.63;;;;;;;;;;4951430;28;20058;-82
2023/12/06 03:37:27;;;;;;;4.85;2.80;;;-0.30;99.90;;;;;;4953264;29;20560;-82
2023/12/06 03:39:53;;;;;;;19.35;5.30;;;;;;;;;;4953031;29;20106;-82
2023/12/06 03:42:19;;;;;;;9.07;4.80;;;;;;;;;;4953513;29;20039;-82
2023/12/06 03:44:45;;;;;;;2.05;1.80;;;;;;;;;;4953174;29;20031;-82
2023/12/06 03:47:10;;;;;;;7.63;2.90;;;-0.50;99.90;;;;;;4948586;28;20035;-82
2023/12/06 03:49:36;;;;;;;7.05;3.92;;;;;;;;;;4960009;28;20422;-82
2023/12/06 03:52:02;;;;;;;2.45;1.75;;;-0.80;95.90;;;;;;4967453;28;20031;-82
2023/12/06 03:54:28;;;;;;;5.78;2.85;;;0.30;97.80;;;;;;4956481;28;20750;-82
2023/12/06 03:56:54;;;;;;;1.95;1.52;;;;;;;;;;4956169;28;20059;-82
2023/12/06 03:59:20;;;;;;;13.18;3.42;;;;;;;;;;4952805;29;20086;-83
2023/12/06 04:01:46;;;;;;;3.20;1.77;;;;;;;;;;4952577;29;20030;-82
2023/12/06 04:04:12;;;;;;;3.58;1.83;;;;;;;;;;4936869;28;20264;-82
2023/12/06 04:06:38;;;;;;;1.20;1.10;;;-0.80;98.20;;;;;;4952503;29;20063;-82
2023/12/06 04:09:04;;;;;;;3.13;1.50;;;;;;;;;;4952733;29;20085;-82
2023/12/06 04:11:30;;;;;;;1.95;1.20;;;;;;;;;;4953166;29;20023;-82
2023/12/06 04:13:56;;;;;;;5.47;2.83;;;-0.50;99.20;;;;;;4952483;29;20027;-82
2023/12/06 04:16:22;;;;;;;4.13;1.73;;;;;;;;;;4952084;29;20377;-82
2023/12/06 04:18:48;;;;;;;4.25;3.20;;;-0.30;98.30;;;;;;4940580;29;20108;-83
2023/12/06 04:21:14;;;;;;;2.92;1.88;;;;;;;;;;4955055;28;20106;-82
2023/12/06 04:23:40;;;;;;;3.30;1.92;;;;;;;;;;4961019;28;20023;-82
2023/12/06 04:26:06;;;;;;;6.80;1.70;;;;;;;;;;4952518;29;20027;-82
2023/12/06 04:28:32;;;;;;;1.48;1.38;;;;;;;;;;4951898;29;20046;-83
2023/12/06 04:30:58;;;;;;;1.75;1.63;;;;;;;;;;4951261;29;20035;-82
2023/12/06 04:33:24;;;;;;;1.00;1.00;;;;;;;;;;4952389;29;20043;-82
2023/12/06 04:35:50;;;;;;;2.42;1.42;;;;;;;;;;4952538;29;20034;-82
2023/12/06 04:38:16;;;;;;;1.83;1.55;;;;;;;;;;4952283;29;20424;-82
2023/12/06 04:40:42;;;;;;;6.60;3.13;;;;;;;;;;4952092;29;20030;-81
2023/12/06 04:43:08;;;;;;;4.00;2.13;;;;;;;;;;4952034;29;20324;-82
2023/12/06 04:45:34;;;;;;;4.43;2.78;;;;;;;;;;4951653;29;20037;-82
2023/12/06 04:48:00;;;;;;;2.80;1.50;;;;;;;;;;4951783;28;20043;-82
2023/12/06 04:50:26;;;;;;;1.58;1.27;;;;;;;;;;4951751;29;20485;-82
2023/12/06 04:52:52;;;;;;;1.95;1.67;;;;;;;;;;4934922;29;20499;-83
2023/12/06 04:55:18;;;;;;;2.97;1.13;;;;;;;;;;4953953;28;20024;-82
2023/12/06 04:57:44;;;;;;;2.60;1.45;;;;;;;;;;4958881;28;20073;-82
2023/12/06 05:00:10;;;;;;;20.67;2.17;;;0.00;94.20;;;;;;4950805;29;20023;-82
2023/12/06 05:02:36;;;;;;;12.13;2.75;;;-0.10;99.60;;;;;;4942209;29;20380;-82
2023/12/06 05:05:04;;;;;;;6.63;2.53;;;-0.50;94.50;;;;;;4953033;28;20027;-82
2023/12/06 05:07:29;;;;;;;;;;;-0.10;94.00;;;;;;4952540;29;20135;-82
2023/12/06 05:09:55;;;;;;;2.72;1.40;;;;;;;;;;4951863;29;19997;-82
2023/12/06 05:12:21;;;;;;;1.92;1.30;;;;;;;;;;4952168;29;20027;-82
2023/12/06 05:14:47;;;;;;;7.38;1.35;;;;;;;;;;4951366;29;20477;-82
2023/12/06 05:17:13;;;;;;;12.55;2.25;;;;;;;;;;4951483;29;20030;-82
2023/12/06 05:19:39;;;;;;;4.80;1.38;;;;;;;;;;4951481;29;20035;-82
2023/12/06 05:22:05;;;;;;;1.50;1.40;;;;;;;;;;4952323;29;20055;-82
2023/12/06 05:24:31;;;;;;;2.35;0.93;;;-0.40;99.90;;;;;;4951553;29;20085;-82
2023/12/06 05:26:57;;;;;;;2.60;1.33;;;;;;;;;;4947039;29;20067;-82
2023/12/06 05:29:23;;;;;;;18.88;3.50;;;-0.30;99.90;;;;;;4922639;29;20158;-82
2023/12/06 05:31:49;;;;;;;2.78;1.70;;;;;;;;;;4951342;29;20110;-83
2023/12/06 05:34:15;;;;;;;9.60;2.13;;;;;;;;;;4951399;29;20399;-82
2023/12/06 05:36:40;;;;;;;5.25;3.70;;;-0.20;99.90;;;;;;4942800;29;20498;-82
2023/12/06 05:39:07;;;;;;;5.88;1.38;;;;;;;;;;4951455;29;20123;-82
2023/12/06 05:41:33;;;;;;;4.85;2.28;;;;;;;;;;4951439;29;20028;-82
2023/12/06 05:43:59;;;;;;;16.88;4.60;;;-0.60;99.90;;;;;;4951275;29;20504;-82
2023/12/06 05:46:25;;;;;;;10.70;4.18;;;;;;;;;;4951374;29;20038;-83
2023/12/06 05:48:51;;;;;;;5.68;2.30;;;;;;;;;;4951625;29;20034;-83
2023/12/06 05:51:17;;;;;;;6.18;2.33;;;;;;;;;;4951724;29;20503;-82
2023/12/06 05:53:43;;;;;;;9.68;2.83;;;;;;;;;;4951527;29;20078;-82
2023/12/06 05:56:09;;;;;;;3.63;1.95;;;-0.10;99.90;;;;;;4960300;28;20117;-83
2023/12/06 05:58:35;;;;;;;4.15;2.08;;;;;;;;;;4952754;28;20026;-82
2023/12/06 06:01:01;;;;;;;5.45;2.10;;;0.00;99.90;;;;;;4952460;29;20498;-83
2023/12/06 06:03:27;;;;;;;11.85;4.82;;;0.10;99.90;;;;;;4954754;29;20031;-82
2023/12/06 06:05:53;;;;;;;6.10;2.10;;;;;;;;;;4955786;28;20117;-82
2023/12/06 06:08:19;;;;;;;2.45;0.90;;;;;;;;;;4955407;29;20023;-83
2023/12/06 06:10:44;;;;;;;46.95;22.67;;;0.40;99.90;;;;;;4954673;29;20442;-83
2023/12/06 06:13:10;;;;;;;32.63;13.30;;;;;;;;;;4955166;29;20125;-83
2023/12/06 06:15:36;;;;;;;10.57;4.63;;;;;;;;;;4954939;29;20027;-82
2023/12/06 06:18:05;;;;;;;8.32;2.80;;;0.70;99.60;;;;;;4954650;29;20034;-81
2023/12/06 06:20:32;;;;;;;3.47;2.20;;;;;;;;;;4950515;29;20071;-83
2023/12/06 06:22:57;;;;;;;2.33;2.13;;;0.70;99.90;;;;;;4952209;29;20114;-83
2023/12/06 06:25:24;;;;;;;3.10;2.40;;;;;;;;;;4943041;29;20123;-83
2023/12/06 06:27:50;;;;;;;4.80;2.08;;;;;;;;;;4949789;29;20467;-83
2023/12/06 06:30:15;;;;;;;2.53;1.85;;;0.70;99.40;;;;;;4946086;29;20067;-83
2023/12/06 06:32:41;;;;;;;3.35;2.65;;;;;;;;;;4952983;29;20082;-83
2023/12/06 06:35:07;;;;;;;2.20;1.88;;;;;;;;;;4949273;29;20035;-83
2023/12/06 06:37:34;;;;;;;7.93;3.78;;;0.90;99.90;;;;;;4947929;29;20031;-83
2023/12/06 06:40:00;;;;;;;9.23;3.05;;;;;;;;;;4951949;29;20046;-82
2023/12/06 06:42:26;;;;;;;7.40;2.40;;;;;;;;;;4952501;29;20106;-83
2023/12/06 06:44:55;;;;;;;10.52;3.45;;;;;;;;;;4952395;29;20019;-83
2023/12/06 06:47:21;;;;;;;4.55;2.42;;;;;;;;;;4952157;29;20101;-82
2023/12/06 06:49:47;;;;;;;5.55;3.05;;;;;;;;;;4951795;29;20027;-82
2023/12/06 06:52:13;;;;;;;4.18;1.70;;;0.90;99.90;;;;;;4952556;29;20516;-82
2023/12/06 06:54:39;;;;;;;6.55;4.18;;;;;;;;;;4943429;29;20032;-82
2023/12/06 06:57:05;;;;;;;8.63;5.13;;;;;;;;;;4960585;28;20034;-82
2023/12/06 06:59:31;;;;;;;20.77;7.25;;;;;;;;;;4951588;29;20408;-82
2023/12/06 07:01:57;;;;;;;25.20;13.50;;;;;;;;;;4939788;29;20033;-82
2023/12/06 07:04:23;;;;;;;30.45;12.13;;;;;;;;;;4955410;28;20093;-83
2023/12/06 07:06:49;;;;;;;17.92;6.53;;;;;;;;;;4952769;28;20043;-82
2023/12/06 07:09:15;;;;;;;10.70;7.30;;;;;;;;;;4953429;28;20030;-81
2023/12/06 07:11:41;;;;;;;12.23;7.25;;;;;;;;;;4950746;29;20082;-83
2023/12/06 07:14:06;;;;;;;20.70;6.50;;;1.20;99.90;;;;;;4961725;29;20032;-87
2023/12/06 07:16:32;;;;;;;12.73;5.38;;;;;;;;;;4958010;29;20042;-86
2023/12/06 07:18:58;;;;;;;16.35;4.82;;;;;;;;;;4959541;29;20389;-86
2023/12/06 07:21:25;;;;;;;11.02;5.07;;;;;;;;;;4961474;29;20027;-83
2023/12/06 07:23:51;;;;;;;16.10;7.03;;;1.30;99.90;;;;;;4960818;29;20034;-88
2023/12/06 07:26:18;;;;;;;10.90;4.85;;;;;;;;;;4959229;29;20027;-86
2023/12/06 07:28:44;;;;;;;13.43;5.25;;;1.30;93.00;;;;;;4962863;29;20463;-81
2023/12/06 07:31:10;;;;;;;29.02;10.63;;;;;;;;;;4959245;29;20058;-85
2023/12/06 07:33:39;;;;;;;25.63;9.82;;;;;;;;;;4961461;29;20030;-86
2023/12/06 07:36:05;;;;;;;11.93;6.30;;;;;;;;;;4955423;28;20565;-86
2023/12/06 07:38:31;;;;;;;19.90;3.92;;;;;;;;;;4959232;28;20035;-86
2023/12/06 07:40:57;;;;;;;12.20;4.45;;;1.70;99.90;;;;;;4954613;29;20028;-86
2023/12/06 07:43:25;;;;;;;23.95;8.15;;;1.80;99.90;;;;;;4951236;28;20086;-86
2023/12/06 07:45:51;;;;;;;9.43;4.38;;;1.90;99.90;;;;;;4953152;28;20115;-86
2023/12/06 07:48:17;;;;;;;14.35;5.32;;;;;;;;;;4960342;29;20039;-87
2023/12/06 07:50:43;;;;;;;7.60;4.67;;;;;;;;;;4960211;29;20063;-86
2023/12/06 07:53:09;;;;;;;15.93;4.57;;;1.90;97.80;;;;;;4954509;29;20043;-84
2023/12/06 07:55:35;;;;;;;5.90;3.25;;;;;;;;;;4964817;28;20102;-82
2023/12/06 07:58:01;;;;;;;7.78;3.90;;;1.80;96.10;;;;;;4964210;28;20039;-80
2023/12/06 08:00:27;;;;;;;25.75;7.57;;;;;;;;;;4950375;29;20026;-88
2023/12/06 08:02:53;;;;;;;9.70;3.72;;;;;;;;;;4951949;29;20038;-88
2023/12/06 08:05:19;;;;;;;5.25;2.42;;;;;;;;;;4957593;28;20039;-89
2023/12/06 08:07:45;;;;;;;3.70;3.08;;;;;;;;;;4951813;29;20055;-88
2023/12/06 08:10:13;;;;;;;7.72;3.28;;;2.20;99.90;;;;;;4951842;29;20508;-88
2023/12/06 08:12:39;;;;;;;6.10;3.97;;;2.30;95.40;;;;;;4952350;29;20023;-88
2023/12/06 08:15:06;;;;;;;6.35;3.20;;;2.30;91.70;;;;;;4952350;29;20034;-87
2023/12/06 08:17:32;;;;;;;11.13;4.65;;;;;;;;;;4951932;28;20027;-88
2023/12/06 08:19:58;;;;;;;6.05;2.30;;;;;;;;;;4952362;29;20122;-87
2023/12/06 08:22:25;;;;;;;6.47;3.25;;;;;;;;;;4952628;28;20090;-88
2023/12/06 08:24:56;;;;;;;4.68;3.63;;;;;;;;;;4948846;29;20065;-88
2023/12/06 08:27:22;;;;;;;4.40;2.13;;;;;;;;;;4951345;29;20050;-88
2023/12/06 08:29:49;;;;;;;4.88;2.08;;;;;;;;;;4951810;29;20118;-89
2023/12/06 08:32:14;;;;;;;3.50;2.17;;;2.60;99.90;;;;;;4951608;29;20053;-88
2023/12/06 08:34:40;;;;;;;7.93;3.50;;;;;;;;;;4934570;29;20062;-88
2023/12/06 08:37:06;;;;;;;50.10;14.35;;;;;;;;;;4948224;29;20059;-89
2023/12/06 08:39:34;;;;;;;64.57;16.35;;;;;;;;;;4951545;29;20062;-88
2023/12/06 08:42:00;;;;;;;39.85;8.25;;;;;;;;;;4950676;29;20086;-88
2023/12/06 08:44:28;;;;;;;10.35;4.85;;;;;;;;;;4951120;29;20020;-89
2023/12/06 08:46:53;;;;;;;;;;;3.20;90.90;;;;;;4951411;29;20038;-88
2023/12/06 08:49:19;;;;;;;14.23;6.22;;;;;;;;;;4947946;29;19910;-88
2023/12/06 08:51:45;;;;;;;10.02;4.20;;;;;;;;;;4946329;29;20090;-88
2023/12/06 08:54:11;;;;;;;8.55;4.43;;;;;;;;;;4952463;29;20416;-88
2023/12/06 08:56:37;;;;;;;16.30;6.05;;;;;;;;;;4952318;28;20043;-88
2023/12/06 08:59:04;;;;;;;22.55;4.50;;;3.20;99.90;;;;;;4949615;29;20503;-82
2023/12/06 09:01:30;;;;;;;7.57;3.53;;;;;;;;;;4945448;29;20030;-82
2023/12/06 09:03:56;;;;;;;5.20;2.83;;;;;;;;;;4950744;29;20119;-83
2023/12/06 09:06:22;;;;;;;6.88;2.97;;;;;;;;;;4952988;28;20019;-82
2023/12/06 09:08:47;;;;;;;8.18;4.35;;;5.40;96.10;;;;;;4951127;29;20039;-84
2023/12/06 09:11:21;;;;;;;9.90;5.18;;;5.30;90.10;;;;;;4950911;29;20051;-86
2023/12/06 09:13:48;;;;;;;34.35;12.10;;;5.00;81.80;;;;;;4948551;29;20023;-86
2023/12/06 09:16:14;;;;;;;8.85;4.60;;;5.00;90.80;;;;;;4947165;29;20038;-83
2023/12/06 09:18:40;;;;;;;15.75;5.45;;;;;;;;;;4950867;29;20023;-87
2023/12/06 09:21:06;;;;;;;17.50;5.38;;;;;;;;;;4951028;29;20105;-85
2023/12/06 09:23:32;;;;;;;11.40;4.65;;;5.70;80.10;;;;;;4951134;29;20031;-84
2023/12/06 09:25:59;;;;;;;12.32;4.85;;;6.80;85.00;;;;;;4950739;29;20571;-85
2023/12/06 09:28:25;;;;;;;12.73;3.67;;;;;;;;;;4950530;29;20047;-83
2023/12/06 09:30:51;;;;;;;12.98;5.22;;;;;;;;;;4950941;29;20515;-87
2023/12/06 09:33:18;;;;;;;23.58;6.47;;;6.40;92.20;;;;;;4952625;28;20043;-88
2023/12/06 09:35:44;;;;;;;10.45;4.97;;;;;;;;;;4956327;29;20118;-87
2023/12/06 09:38:12;;;;;;;6.72;2.88;;;;;;;;;;4954829;29;20245;-87
2023/12/06 09:40:38;;;;;;;4.20;2.35;;;;;;;;;;4954067;29;20015;-86
2023/12/06 09:43:04;;;;;;;6.68;3.03;;;;;;;;;;4952386;29;20032;-86
2023/12/06 09:45:30;;;;;;;4.55;2.58;;;;;;;;;;4950417;29;20038;-80
2023/12/06 09:47:56;;;;;;;8.18;2.60;;;;;;;;;;4953380;29;20589;-82
2023/12/06 09:50:24;;;;;;;16.20;4.90;;;7.30;71.80;;;;;;4953165;29;20032;-84
2023/12/06 09:52:54;;;;;;;6.30;3.88;;;7.20;73.20;;;;;;4951373;29;20039;-84
2023/12/06 09:55:29;;;;;;;10.70;3.70;;;;;;;;;;4953955;28;20055;-83
2023/12/06 09:57:56;;;;;;;4.63;3.47;;;;;;;;;;4956162;28;20031;-83
2023/12/06 10:00:22;;;;;;;6.65;2.97;;;;;;;;;;4954868;29;20031;-83
2023/12/06 10:02:53;;;;;;;8.38;4.20;;;6.90;77.60;;;;;;4954196;28;20066;-91
2023/12/06 10:05:18;;;;;;;4.40;2.45;;;6.60;93.10;;;;;;4961268;28;20031;-91
2023/12/06 10:07:45;;;;;;;4.03;2.35;;;;;;;;;;4956471;29;20046;-88
2023/12/06 10:10:15;;;;;;;6.18;2.90;;;6.40;78.60;;;;;;4953945;29;20074;-88
2023/12/06 10:12:55;;;;;;;21.23;3.28;;;7.00;76.90;;;;;;4953433;29;20053;-88
2023/12/06 10:15:22;;;;;;;11.68;3.42;;;7.20;79.20;;;;;;4953591;29;20027;-85
2023/12/06 10:17:48;;;;;;;6.47;3.13;;;7.90;75.60;;;;;;4952834;29;20110;-81
2023/12/06 10:20:15;;;;;;;7.05;3.25;;;8.50;71.80;;;;;;4943363;29;20174;-87
2023/12/06 10:22:41;;;;;;;6.60;2.33;;;8.40;80.40;;;;;;4954104;29;20129;-87
2023/12/06 10:25:10;;;;;;;7.95;2.35;;;8.60;69.10;;;;;;4954370;29;20023;-87
2023/12/06 10:27:36;;;;;;;7.93;4.32;;;;;;;;;;4951991;29;20042;-85
2023/12/06 10:30:04;;;;;;;8.48;3.40;;;8.70;69.40;;;;;;4953430;29;20055;-87
2023/12/06 10:32:30;;;;;;;5.80;2.45;;;;;;;;;;4953947;29;20065;-88
2023/12/06 10:35:00;;;;;;;3.20;2.05;;;9.10;67.40;;;;;;4949080;29;20063;-88
2023/12/06 10:37:27;;;;;;;5.50;2.33;;;9.30;68.40;;;;;;4946051;29;20035;-84
2023/12/06 10:40:00;;;;;;;3.20;2.17;;;9.50;66.50;;;;;;4949651;29;20027;-84
2023/12/06 10:42:33;;;;;;;4.88;1.85;;;9.50;66.80;;;;;;4948231;29;20512;-88
2023/12/06 10:45:00;;;;;;;5.80;2.42;;;9.20;66.80;;;;;;4945483;28;20051;-87
2023/12/06 10:47:26;;;;;;;12.48;2.70;;;;;;;;;;4954755;29;20074;-90
2023/12/06 10:49:54;;;;;;;3.33;1.70;;;8.90;68.80;;;;;;4952727;29;20031;-84
2023/12/06 10:52:21;;;;;;;3.78;1.73;;;8.90;68.90;;;;;;4952697;29;20531;-82
2023/12/06 10:54:47;;;;;;;8.67;2.03;;;8.70;82.50;;;;;;4952889;29;20512;-87
2023/12/06 10:57:13;;;;;;;2.55;1.92;;;;;;;;;;4958086;28;20468;-88
2023/12/06 10:59:41;;;;;;;4.35;1.83;;;8.80;69.20;;;;;;4948203;29;20035;-88
2023/12/06 11:02:10;;;;;;;5.30;1.65;;;8.50;82.40;;;;;;4953990;29;20028;-88
2023/12/06 11:04:39;;;;;;;3.65;2.08;;;8.40;69.00;;;;;;4953137;28;20066;-88
2023/12/06 11:07:42;;;;;;;3.25;1.67;;;8.20;69.30;;;;;;4951563;29;20054;-88
2023/12/06 11:10:23;;;;;;;3.50;1.67;;;7.90;69.50;;;;;;4953393;29;20087;-88
2023/12/06 11:12:49;;;;;;;7.30;1.65;;;;;;;;;;4953069;29;20110;-87
2023/12/06 11:15:34;;;;;;;5.25;1.95;;;7.70;71.10;;;;;;4952623;29;20496;-87
2023/12/06 11:18:20;;;;;;;7.75;1.98;;;7.60;71.50;;;;;;4953752;29;20050;-87
2023/12/06 11:20:46;;;;;;;6.30;2.03;;;;;;;;;;4946552;29;20015;-88
2023/12/06 11:23:12;;;;;;;5.82;1.63;;;;;;;;;;4953179;29;20031;-88
2023/12/06 11:25:42;;;;;;;3.13;1.70;;;7.20;72.90;;;;;;4952827;29;20094;-87
2023/12/06 11:28:12;;;;;;;6.72;2.25;;;7.50;76.80;;;;;;4953398;29;20047;-87
2023/12/06 11:30:46;;;;;;;1.85;1.40;;;7.50;78.60;;;;;;4952662;29;20047;-88
2023/12/06 11:33:12;;;;;;;4.03;1.17;;;7.50;90.90;;;;;;4952658;29;20106;-87
2023/12/06 11:35:55;;;;;;;3.10;1.60;;;7.50;72.10;;;;;;4942441;29;20143;-88
2023/12/06 11:38:32;;;;;;;7.85;1.88;;;7.50;71.90;;;;;;4951617;29;20036;-87
2023/12/06 11:40:58;;;;;;;2.80;1.55;;;;;;;;;;4948153;29;20043;-86
2023/12/06 11:43:31;;;;;;;6.97;2.03;;;7.50;73.20;;;;;;4935710;29;20113;-87
2023/12/06 11:46:10;;;;;;;2.63;1.60;;;7.80;71.50;;;;;;4950871;29;20104;-89
2023/12/06 11:48:44;;;;;;;5.75;2.15;;;7.90;71.40;;;;;;4951299;29;20046;-84
2023/12/06 11:51:19;;;;;;;2.60;1.98;;;8.10;71.40;;;;;;4945777;29;20035;-86
2023/12/06 11:53:45;;;;;;;4.07;1.30;;;;;;;;;;4950411;29;20027;-84
2023/12/06 11:56:11;;;;;;;5.43;1.98;;;;;;;;;;4953764;28;20126;-86
2023/12/06 11:58:38;;;;;;;2.58;1.90;;;;;;;;;;4951825;29;20019;-85
2023/12/06 12:01:04;;;;;;;1.63;1.53;;;;;;;;;;4951854;29;20493;-87
2023/12/06 12:03:35;;;;;;;1.42;1.27;;;8.80;76.10;;;;;;4951761;29;20779;-86
2023/12/06 12:06:01;;;;;;;5.90;2.05;;;8.90;73.30;;;;;;4957069;28;20416;-87
2023/12/06 12:08:28;;;;;;;2.20;1.65;;;;;;;;;;4950805;29;20040;-86
2023/12/06 12:10:54;;;;;;;;;;;9.00;68.50;;;;;;4952152;29;20097;-86
2023/12/06 12:13:23;;;;;;;5.28;2.10;;;9.00;68.20;;;;;;4934197;29;19914;-87
2023/12/06 12:15:54;;;;;;;2.45;1.48;;;9.20;68.30;;;;;;4951637;29;20104;-87
2023/12/06 12:18:20;;;;;;;2.38;1.30;;;;;;;;;;4943955;29;20107;-86
2023/12/06 12:20:46;;;;;;;5.53;1.77;;;9.10;86.90;;;;;;4951266;29;20074;-86
2023/12/06 12:23:12;;;;;;;2.50;1.75;;;;;;;;;;4950885;29;20114;-88
2023/12/06 12:25:46;;;;;;;4.68;1.98;;;9.00;67.70;;;;;;4950293;29;20027;-89
2023/12/06 12:28:12;;;;;;;1.88;1.77;;;;;;;;;;4942912;29;20436;-90
2023/12/06 12:30:38;;;;;;;6.20;1.95;;;;;;;;;;4950629;29;20516;-88
2023/12/06 12:33:04;;;;;;;2.60;2.05;;;8.50;81.10;;;;;;4951484;29;20046;-88
2023/12/06 12:35:30;;;;;;;3.63;2.20;;;;;;;;;;4939051;28;20046;-89
2023/12/06 12:37:56;;;;;;;3.35;1.77;;;;;;;;;;4948170;28;20031;-86
2023/12/06 12:40:23;;;;;;;6.88;2.28;;;8.40;88.60;;;;;;4940808;28;20396;-83
2023/12/06 12:42:49;;;;;;;3.33;1.73;;;;;;;;;;4929080;29;20038;-83
2023/12/06 12:45:18;;;;;;;4.22;2.35;;;8.20;79.40;;;;;;4942641;29;20031;-87
2023/12/06 12:47:45;;;;;;;3.92;2.90;;;8.10;89.50;;;;;;4945581;28;20054;-87
2023/12/06 12:50:18;;;;;;;4.90;3.40;;;9.60;70.70;;;;;;4940814;29;20038;-86
2023/12/06 12:52:44;;;;;;;4.75;2.53;;;;;;;;;;4943688;29;20287;-83
2023/12/06 12:55:10;;;;;;;3.30;2.20;;;;;;;;;;4941878;28;20058;-84
2023/12/06 12:57:46;;;;;;;5.93;1.75;;;8.10;69.60;;;;;;4938141;29;20133;-84
2023/12/06 13:00:25;;;;;;;3.40;2.95;;;8.50;89.80;;;;;;4944130;29;20023;-84
2023/12/06 13:02:55;;;;;;;5.05;3.20;;;8.30;82.90;;;;;;4946200;29;20354;-84
2023/12/06 13:05:22;;;;;;;13.15;5.55;;;8.20;69.60;;;;;;4937439;28;20335;-84
2023/12/06 13:08:10;;;;;;;6.35;4.30;;;7.90;69.80;;;;;;4942327;28;20035;-81
2023/12/06 13:10:36;;;;;;;11.05;3.33;;;;;;;;;;4936744;29;20500;-83
2023/12/06 13:13:03;;;;;;;5.55;2.55;;;;;;;;;;4921318;29;20065;-86
2023/12/06 13:15:29;;;;;;;4.40;2.03;;;;;;;;;;4935181;29;20432;-86
2023/12/06 13:17:55;;;;;;;13.10;2.33;;;;;;;;;;4942866;28;20023;-87
2023/12/06 13:20:22;;;;;;;3.35;1.75;;;8.30;76.50;;;;;;4932445;29;20083;-87
2023/12/06 13:22:48;;;;;;;10.05;3.03;;;;;;;;;;4939491;29;20083;-80
2023/12/06 13:25:14;;;;;;;3.95;2.13;;;;;;;;;;4934139;29;20135;-80
2023/12/06 13:27:40;;;;;;;3.25;1.75;;;;;;;;;;4936332;29;20036;-84
2023/12/06 13:30:06;;;;;;;3.55;2.17;;;8.20;68.80;;;;;;4944685;28;20058;-85
2023/12/06 13:32:32;;;;;;;13.27;1.88;;;;;;;;;;4931616;29;20522;-83
2023/12/06 13:34:58;;;;;;;5.82;2.42;;;;;;;;;;4931733;28;20405;-81
2023/12/06 13:37:24;;;;;;;2.83;2.15;;;;;;;;;;4914204;29;20112;-86
2023/12/06 13:39:51;;;;;;;4.70;2.10;;;;;;;;;;4918613;29;20036;-87
2023/12/06 13:42:17;;;;;;;4.95;2.17;;;;;;;;;;4922756;29;20554;-88
2023/12/06 13:44:43;;;;;;;3.33;2.65;;;;;;;;;;4938948;29;20043;-86
2023/12/06 13:47:10;;;;;;;7.45;2.70;;;;;;;;;;4938862;29;20062;-91
2023/12/06 13:49:36;;;;;;;5.97;2.20;;;;;;;;;;4945420;29;20602;-92
2023/12/06 13:52:02;;;;;;;2.58;1.80;;;;;;;;;;4943439;28;20764;-91
2023/12/06 13:54:29;;;;;;;4.60;1.70;;;;;;;;;;4939029;29;20032;-89